sensor_id;sensor_type;location;lat;lon;timestamp;pressure;altitude;pressure_sealevel;temperature;humidity
12666;BME280;58531;59.050;17.416;2023-07-16T00:00:58;100410.69;;;17.70;78.88
12666;BME280;58531;59.050;17.416;2023-07-16T00:03:25;100412.66;;;17.70;79.28
12666;BME280;58531;59.050;17.416;2023-07-16T00:05:54;100412.16;;;17.66;80.52
12666;BME280;58531;59.050;17.416;2023-07-16T00:08:21;100414.34;;;17.67;80.65
12666;BME280;58531;59.050;17.416;2023-07-16T00:10:48;100406.28;;;17.73;80.49
12666;BME280;58531;59.050;17.416;2023-07-16T00:13:15;100398.91;;;17.73;80.84
12666;BME280;58531;59.050;17.416;2023-07-16T00:15:42;100396.19;;;17.73;80.71
12666;BME280;58531;59.050;17.416;2023-07-16T00:18:08;100392.31;;;17.80;80.26
12666;BME280;58531;59.050;17.416;2023-07-16T00:20:35;100388.84;;;17.79;80.83
12666;BME280;58531;59.050;17.416;2023-07-16T00:23:03;100393.75;;;17.75;81.34
12666;BME280;58531;59.050;17.416;2023-07-16T00:25:30;100390.78;;;17.73;81.91
12666;BME280;58531;59.050;17.416;2023-07-16T00:27:57;100377.03;;;17.71;82.38
12666;BME280;58531;59.050;17.416;2023-07-16T00:30:24;100374.34;;;17.71;82.72
12666;BME280;58531;59.050;17.416;2023-07-16T00:32:51;100371.88;;;17.73;82.17
12666;BME280;58531;59.050;17.416;2023-07-16T00:35:18;100371.63;;;17.71;82.50
12666;BME280;58531;59.050;17.416;2023-07-16T00:37:45;100363.53;;;17.71;82.37
12666;BME280;58531;59.050;17.416;2023-07-16T00:40:13;100362.56;;;17.74;81.53
12666;BME280;58531;59.050;17.416;2023-07-16T00:42:40;100368.00;;;17.80;81.71
12666;BME280;58531;59.050;17.416;2023-07-16T00:45:12;100374.13;;;17.80;80.92
12666;BME280;58531;59.050;17.416;2023-07-16T00:47:40;100367.25;;;17.79;80.42
12666;BME280;58531;59.050;17.416;2023-07-16T00:50:09;100369.22;;;17.84;80.17
12666;BME280;58531;59.050;17.416;2023-07-16T00:52:37;100348.84;;;17.94;77.94
12666;BME280;58531;59.050;17.416;2023-07-16T00:55:06;100346.84;;;17.94;78.62
12666;BME280;58531;59.050;17.416;2023-07-16T00:57:34;100343.91;;;17.92;79.57
12666;BME280;58531;59.050;17.416;2023-07-16T01:00:02;100352.03;;;17.87;79.30
12666;BME280;58531;59.050;17.416;2023-07-16T01:02:29;100347.59;;;17.84;79.77
12666;BME280;58531;59.050;17.416;2023-07-16T01:04:56;100341.72;;;17.91;78.89
12666;BME280;58531;59.050;17.416;2023-07-16T01:07:25;100343.41;;;17.88;78.94
12666;BME280;58531;59.050;17.416;2023-07-16T01:09:53;100343.41;;;17.88;79.03
12666;BME280;58531;59.050;17.416;2023-07-16T01:12:22;100332.63;;;17.94;77.83
12666;BME280;58531;59.050;17.416;2023-07-16T01:14:51;100341.22;;;17.98;77.49
12666;BME280;58531;59.050;17.416;2023-07-16T01:17:18;100335.56;;;18.01;77.67
12666;BME280;58531;59.050;17.416;2023-07-16T01:19:45;100340.47;;;17.97;77.87
12666;BME280;58531;59.050;17.416;2023-07-16T01:22:39;100343.94;;;17.98;77.92
12666;BME280;58531;59.050;17.416;2023-07-16T01:25:29;100345.16;;;17.97;77.97
12666;BME280;58531;59.050;17.416;2023-07-16T01:28:07;100338.28;;;18.07;76.65
12666;BME280;58531;59.050;17.416;2023-07-16T01:30:39;100344.66;;;18.04;78.07
12666;BME280;58531;59.050;17.416;2023-07-16T01:33:08;100345.63;;;18.12;76.58
12666;BME280;58531;59.050;17.416;2023-07-16T01:35:38;100348.09;;;18.10;76.74
12666;BME280;58531;59.050;17.416;2023-07-16T01:38:06;100344.66;;;18.09;77.09
12666;BME280;58531;59.050;17.416;2023-07-16T01:40:34;100355.97;;;18.08;76.85
12666;BME280;58531;59.050;17.416;2023-07-16T01:43:01;100341.22;;;18.09;76.55
12666;BME280;58531;59.050;17.416;2023-07-16T01:45:27;100332.84;;;18.12;76.80
12666;BME280;58531;59.050;17.416;2023-07-16T01:48:14;100342.19;;;18.17;76.93
12666;BME280;58531;59.050;17.416;2023-07-16T01:50:41;100351.03;;;18.17;76.77
12666;BME280;58531;59.050;17.416;2023-07-16T01:53:08;100348.56;;;18.14;77.53
12666;BME280;58531;59.050;17.416;2023-07-16T01:55:35;100345.63;;;18.12;77.92
12666;BME280;58531;59.050;17.416;2023-07-16T01:58:02;100335.56;;;18.12;77.88
12666;BME280;58531;59.050;17.416;2023-07-16T02:00:30;100328.19;;;18.18;77.95
12666;BME280;58531;59.050;17.416;2023-07-16T02:02:59;100338.00;;;18.16;78.48
12666;BME280;58531;59.050;17.416;2023-07-16T02:05:26;100329.19;;;18.15;79.22
12666;BME280;58531;59.050;17.416;2023-07-16T02:07:52;100329.91;;;18.16;79.33
12666;BME280;58531;59.050;17.416;2023-07-16T02:10:19;100330.41;;;18.14;79.80
12666;BME280;58531;59.050;17.416;2023-07-16T02:12:46;100326.47;;;18.15;80.14
12666;BME280;58531;59.050;17.416;2023-07-16T02:15:13;100323.25;;;18.17;80.48
12666;BME280;58531;59.050;17.416;2023-07-16T02:17:41;100328.19;;;18.13;81.24
12666;BME280;58531;59.050;17.416;2023-07-16T02:20:10;100314.94;;;18.09;81.62
12666;BME280;58531;59.050;17.416;2023-07-16T02:22:37;100321.56;;;18.03;83.31
12666;BME280;58531;59.050;17.416;2023-07-16T02:25:04;100316.16;;;17.92;85.15
12666;BME280;58531;59.050;17.416;2023-07-16T02:27:31;100315.19;;;17.84;85.94
12666;BME280;58531;59.050;17.416;2023-07-16T02:29:58;100318.59;;;17.68;88.94
12666;BME280;58531;59.050;17.416;2023-07-16T02:32:25;100309.50;;;17.55;92.44
12666;BME280;58531;59.050;17.416;2023-07-16T02:34:52;100312.41;;;17.35;94.00
12666;BME280;58531;59.050;17.416;2023-07-16T02:37:20;100307.41;;;17.11;100.00
12666;BME280;58531;59.050;17.416;2023-07-16T02:39:47;100302.44;;;16.93;100.00
12666;BME280;58531;59.050;17.416;2023-07-16T02:42:14;100299.69;;;16.82;100.00
12666;BME280;58531;59.050;17.416;2023-07-16T02:44:41;100299.19;;;16.78;100.00
12666;BME280;58531;59.050;17.416;2023-07-16T02:47:10;100297.25;;;16.79;100.00
12666;BME280;58531;59.050;17.416;2023-07-16T02:49:37;100290.84;;;16.71;100.00
12666;BME280;58531;59.050;17.416;2023-07-16T02:52:05;100302.09;;;16.69;100.00
12666;BME280;58531;59.050;17.416;2023-07-16T02:54:35;100298.63;;;16.58;100.00
12666;BME280;58531;59.050;17.416;2023-07-16T02:57:03;100296.59;;;16.48;100.00
12666;BME280;58531;59.050;17.416;2023-07-16T02:59:30;100306.34;;;16.40;100.00
12666;BME280;58531;59.050;17.416;2023-07-16T03:01:57;100301.91;;;16.37;100.00
12666;BME280;58531;59.050;17.416;2023-07-16T03:04:23;100301.13;;;16.31;100.00
12666;BME280;58531;59.050;17.416;2023-07-16T03:06:50;100288.09;;;16.24;100.00
12666;BME280;58531;59.050;17.416;2023-07-16T03:09:17;100282.41;;;16.16;100.00
12666;BME280;58531;59.050;17.416;2023-07-16T03:11:46;100275.72;;;16.06;100.00
12666;BME280;58531;59.050;17.416;2023-07-16T03:14:13;100267.63;;;16.01;100.00
12666;BME280;58531;59.050;17.416;2023-07-16T03:16:40;100252.41;;;15.98;100.00
12666;BME280;58531;59.050;17.416;2023-07-16T03:19:07;100242.34;;;15.93;100.00
12666;BME280;58531;59.050;17.416;2023-07-16T03:21:34;100241.81;;;15.89;100.00
12666;BME280;58531;59.050;17.416;2023-07-16T03:24:02;100237.66;;;15.88;100.00
12666;BME280;58531;59.050;17.416;2023-07-16T03:26:29;100214.38;;;15.85;100.00
12666;BME280;58531;59.050;17.416;2023-07-16T03:28:57;100202.34;;;15.80;100.00
12666;BME280;58531;59.050;17.416;2023-07-16T03:31:24;100188.41;;;15.82;100.00
12666;BME280;58531;59.050;17.416;2023-07-16T03:33:51;100178.34;;;15.82;100.00
12666;BME280;58531;59.050;17.416;2023-07-16T03:36:18;100185.97;;;15.84;100.00
12666;BME280;58531;59.050;17.416;2023-07-16T03:38:45;100174.69;;;15.80;100.00
12666;BME280;58531;59.050;17.416;2023-07-16T03:41:12;100165.41;;;15.86;100.00
12666;BME280;58531;59.050;17.416;2023-07-16T03:43:39;100149.75;;;15.85;100.00
12666;BME280;58531;59.050;17.416;2023-07-16T03:46:08;100156.59;;;15.86;100.00
12666;BME280;58531;59.050;17.416;2023-07-16T03:48:34;100149.75;;;15.90;100.00
12666;BME280;58531;59.050;17.416;2023-07-16T03:51:01;100135.84;;;15.97;100.00
12666;BME280;58531;59.050;17.416;2023-07-16T03:53:29;100124.38;;;16.08;100.00
12666;BME280;58531;59.050;17.416;2023-07-16T03:55:55;100121.94;;;16.10;100.00
12666;BME280;58531;59.050;17.416;2023-07-16T03:58:22;100108.25;;;16.19;100.00
12666;BME280;58531;59.050;17.416;2023-07-16T04:00:49;100112.94;;;16.24;100.00
12666;BME280;58531;59.050;17.416;2023-07-16T04:03:19;100107.28;;;16.22;100.00
12666;BME280;58531;59.050;17.416;2023-07-16T04:05:46;100107.28;;;16.22;100.00
12666;BME280;58531;59.050;17.416;2023-07-16T04:08:13;100111.25;;;16.26;100.00
12666;BME280;58531;59.050;17.416;2023-07-16T04:10:40;100111.00;;;16.24;100.00
12666;BME280;58531;59.050;17.416;2023-07-16T04:13:07;100108.84;;;16.34;100.00
12666;BME280;58531;59.050;17.416;2023-07-16T04:15:34;100113.69;;;16.30;100.00
12666;BME280;58531;59.050;17.416;2023-07-16T04:18:01;100071.09;;;16.34;100.00
12666;BME280;58531;59.050;17.416;2023-07-16T04:20:31;100076.25;;;16.37;100.00
12666;BME280;58531;59.050;17.416;2023-07-16T04:22:59;100072.56;;;16.35;100.00
12666;BME280;58531;59.050;17.416;2023-07-16T04:25:25;100059.34;;;16.37;100.00
12666;BME280;58531;59.050;17.416;2023-07-16T04:27:52;100065.25;;;16.41;100.00
12666;BME280;58531;59.050;17.416;2023-07-16T04:30:19;100050.56;;;16.53;100.00
12666;BME280;58531;59.050;17.416;2023-07-16T04:32:46;100046.41;;;16.52;100.00
12666;BME280;58531;59.050;17.416;2023-07-16T04:35:13;100041.97;;;16.54;100.00
12666;BME280;58531;59.050;17.416;2023-07-16T04:37:42;100045.44;;;16.55;100.00
12666;BME280;58531;59.050;17.416;2023-07-16T04:40:09;100053.53;;;16.55;100.00
12666;BME280;58531;59.050;17.416;2023-07-16T04:42:36;100046.66;;;16.54;100.00
12666;BME280;58531;59.050;17.416;2023-07-16T04:45:04;100042.97;;;16.51;100.00
12666;BME280;58531;59.050;17.416;2023-07-16T04:47:31;100048.13;;;16.55;100.00
12666;BME280;58531;59.050;17.416;2023-07-16T04:49:59;100049.81;;;16.58;100.00
12666;BME280;58531;59.050;17.416;2023-07-16T04:52:26;100040.03;;;16.65;100.00
12666;BME280;58531;59.050;17.416;2023-07-16T04:54:54;100038.31;;;16.73;100.00
12666;BME280;58531;59.050;17.416;2023-07-16T04:57:22;100038.81;;;16.88;100.00
12666;BME280;58531;59.050;17.416;2023-07-16T04:59:49;100041.75;;;17.01;100.00
12666;BME280;58531;59.050;17.416;2023-07-16T05:02:17;100027.25;;;17.21;100.00
12666;BME280;58531;59.050;17.416;2023-07-16T05:04:44;100027.97;;;17.43;100.00
12666;BME280;58531;59.050;17.416;2023-07-16T05:07:13;100026.66;;;17.72;100.00
12666;BME280;58531;59.050;17.416;2023-07-16T05:09:41;100023.13;;;17.87;100.00
12666;BME280;58531;59.050;17.416;2023-07-16T05:12:10;100012.97;;;18.10;100.00
12666;BME280;58531;59.050;17.416;2023-07-16T05:14:43;99993.81;;;18.48;100.00
12666;BME280;58531;59.050;17.416;2023-07-16T05:17:10;99989.78;;;18.90;98.80
12666;BME280;58531;59.050;17.416;2023-07-16T05:19:37;99989.50;;;19.41;94.32
12666;BME280;58531;59.050;17.416;2023-07-16T05:22:04;99983.19;;;19.57;90.47
12666;BME280;58531;59.050;17.416;2023-07-16T05:24:32;99986.91;;;19.54;91.58
12666;BME280;58531;59.050;17.416;2023-07-16T05:26:59;99981.81;;;19.26;92.42
12666;BME280;58531;59.050;17.416;2023-07-16T05:29:28;99976.72;;;19.17;92.77
12666;BME280;58531;59.050;17.416;2023-07-16T05:31:55;99973.44;;;19.01;95.07
12666;BME280;58531;59.050;17.416;2023-07-16T05:34:22;99963.63;;;18.98;94.65
12666;BME280;58531;59.050;17.416;2023-07-16T05:36:48;99964.63;;;18.95;97.11
12666;BME280;58531;59.050;17.416;2023-07-16T05:39:15;99959.91;;;19.01;96.83
12666;BME280;58531;59.050;17.416;2023-07-16T05:41:42;99953.97;;;19.02;93.90
12666;BME280;58531;59.050;17.416;2023-07-16T05:44:10;99946.72;;;19.15;94.25
12666;BME280;58531;59.050;17.416;2023-07-16T05:46:38;99946.63;;;19.45;93.03
12666;BME280;58531;59.050;17.416;2023-07-16T05:49:05;99935.97;;;19.52;90.96
12666;BME280;58531;59.050;17.416;2023-07-16T05:51:32;99941.16;;;19.50;91.14
12666;BME280;58531;59.050;17.416;2023-07-16T05:53:59;99933.91;;;19.58;91.34
12666;BME280;58531;59.050;17.416;2023-07-16T05:56:25;99947.38;;;19.45;91.69
12666;BME280;58531;59.050;17.416;2023-07-16T05:58:52;99943.28;;;19.15;93.49
12666;BME280;58531;59.050;17.416;2023-07-16T06:01:19;99938.47;;;19.02;93.95
12666;BME280;58531;59.050;17.416;2023-07-16T06:03:47;99931.41;;;18.94;94.46
12666;BME280;58531;59.050;17.416;2023-07-16T06:06:14;99929.84;;;18.80;95.64
12666;BME280;58531;59.050;17.416;2023-07-16T06:08:41;99928.25;;;18.66;97.21
12666;BME280;58531;59.050;17.416;2023-07-16T06:11:08;99925.38;;;18.59;97.80
12666;BME280;58531;59.050;17.416;2023-07-16T06:13:35;99928.59;;;18.57;96.84
12666;BME280;58531;59.050;17.416;2023-07-16T06:16:03;99928.66;;;18.52;98.69
12666;BME280;58531;59.050;17.416;2023-07-16T06:18:30;99927.19;;;18.51;98.24
12666;BME280;58531;59.050;17.416;2023-07-16T06:20:58;99926.72;;;18.47;98.89
12666;BME280;58531;59.050;17.416;2023-07-16T06:23:25;99921.31;;;18.47;98.77
12666;BME280;58531;59.050;17.416;2023-07-16T06:25:54;99931.91;;;18.45;98.92
12666;BME280;58531;59.050;17.416;2023-07-16T06:28:21;99928.44;;;18.44;99.38
12666;BME280;58531;59.050;17.416;2023-07-16T06:30:48;99934.09;;;18.46;99.93
12666;BME280;58531;59.050;17.416;2023-07-16T06:33:14;99928.81;;;18.59;97.55
12666;BME280;58531;59.050;17.416;2023-07-16T06:35:44;99935.28;;;18.80;96.52
12666;BME280;58531;59.050;17.416;2023-07-16T06:38:13;99931.81;;;19.03;96.12
12666;BME280;58531;59.050;17.416;2023-07-16T06:40:45;99938.25;;;19.24;94.16
12666;BME280;58531;59.050;17.416;2023-07-16T06:43:12;99939.25;;;19.45;95.17
12666;BME280;58531;59.050;17.416;2023-07-16T06:45:38;99919.41;;;19.56;91.51
12666;BME280;58531;59.050;17.416;2023-07-16T06:48:05;99924.75;;;19.61;92.26
12666;BME280;58531;59.050;17.416;2023-07-16T06:50:32;99926.06;;;19.55;91.12
12666;BME280;58531;59.050;17.416;2023-07-16T06:52:59;99932.38;;;19.44;92.47
12666;BME280;58531;59.050;17.416;2023-07-16T06:55:27;99940.38;;;19.31;92.76
12666;BME280;58531;59.050;17.416;2023-07-16T06:57:54;99956.53;;;19.18;93.33
12666;BME280;58531;59.050;17.416;2023-07-16T07:00:21;99959.56;;;19.09;96.08
12666;BME280;58531;59.050;17.416;2023-07-16T07:02:48;99964.09;;;19.02;96.33
12666;BME280;58531;59.050;17.416;2023-07-16T07:05:15;99955.78;;;18.94;96.13
12666;BME280;58531;59.050;17.416;2023-07-16T07:07:42;99958.00;;;18.96;96.68
12666;BME280;58531;59.050;17.416;2023-07-16T07:10:11;99960.91;;;18.98;96.77
12666;BME280;58531;59.050;17.416;2023-07-16T07:12:39;99981.34;;;18.99;98.72
12666;BME280;58531;59.050;17.416;2023-07-16T07:15:07;99978.28;;;19.07;98.12
12666;BME280;58531;59.050;17.416;2023-07-16T07:17:35;99992.19;;;19.22;97.17
12666;BME280;58531;59.050;17.416;2023-07-16T07:20:02;99988.34;;;19.36;97.71
12666;BME280;58531;59.050;17.416;2023-07-16T07:22:30;99971.84;;;19.58;96.29
12666;BME280;58531;59.050;17.416;2023-07-16T07:24:56;99959.97;;;19.61;95.64
12666;BME280;58531;59.050;17.416;2023-07-16T07:27:23;99969.50;;;19.86;93.89
12666;BME280;58531;59.050;17.416;2023-07-16T07:29:51;99964.06;;;19.86;92.80
12666;BME280;58531;59.050;17.416;2023-07-16T07:32:21;99943.22;;;20.00;91.21
12666;BME280;58531;59.050;17.416;2023-07-16T07:34:48;99924.22;;;20.00;91.17
12666;BME280;58531;59.050;17.416;2023-07-16T07:37:15;99918.44;;;19.90;92.14
12666;BME280;58531;59.050;17.416;2023-07-16T07:39:42;99927.81;;;19.89;91.70
12666;BME280;58531;59.050;17.416;2023-07-16T07:42:13;99918.59;;;19.79;93.08
12666;BME280;58531;59.050;17.416;2023-07-16T07:44:39;99937.84;;;19.94;93.27
12666;BME280;58531;59.050;17.416;2023-07-16T07:47:08;99945.19;;;19.99;92.39
12666;BME280;58531;59.050;17.416;2023-07-16T07:49:35;99938.59;;;20.13;92.86
12666;BME280;58531;59.050;17.416;2023-07-16T07:52:01;99952.06;;;20.19;93.02
12666;BME280;58531;59.050;17.416;2023-07-16T07:54:31;99963.19;;;20.15;93.56
12666;BME280;58531;59.050;17.416;2023-07-16T07:57:00;99985.91;;;20.30;92.03
12666;BME280;58531;59.050;17.416;2023-07-16T07:59:28;99997.84;;;20.22;92.08
12666;BME280;58531;59.050;17.416;2023-07-16T08:01:55;99980.19;;;20.16;92.34
12666;BME280;58531;59.050;17.416;2023-07-16T08:04:24;99986.66;;;20.13;92.52
12666;BME280;58531;59.050;17.416;2023-07-16T08:06:50;99995.97;;;19.99;93.76
12666;BME280;58531;59.050;17.416;2023-07-16T08:09:17;99998.41;;;19.78;94.11
12666;BME280;58531;59.050;17.416;2023-07-16T08:11:44;100000.69;;;19.74;95.61
12666;BME280;58531;59.050;17.416;2023-07-16T08:14:11;100005.38;;;19.55;96.51
12666;BME280;58531;59.050;17.416;2023-07-16T08:16:38;100007.84;;;19.53;97.37
12666;BME280;58531;59.050;17.416;2023-07-16T08:19:05;100010.94;;;19.63;99.16
12666;BME280;58531;59.050;17.416;2023-07-16T08:21:33;99996.00;;;19.56;99.16
12666;BME280;58531;59.050;17.416;2023-07-16T08:24:01;99989.69;;;19.48;100.00
12666;BME280;58531;59.050;17.416;2023-07-16T08:26:28;99986.88;;;19.35;100.00
12666;BME280;58531;59.050;17.416;2023-07-16T08:28:55;99983.59;;;19.18;100.00
12666;BME280;58531;59.050;17.416;2023-07-16T08:31:21;100007.38;;;19.02;100.00
12666;BME280;58531;59.050;17.416;2023-07-16T08:33:48;99994.97;;;18.88;100.00
12666;BME280;58531;59.050;17.416;2023-07-16T08:36:15;100010.59;;;18.71;100.00
12666;BME280;58531;59.050;17.416;2023-07-16T08:38:43;100019.13;;;18.51;100.00
12666;BME280;58531;59.050;17.416;2023-07-16T08:41:10;100021.91;;;18.40;100.00
12666;BME280;58531;59.050;17.416;2023-07-16T08:43:38;100026.13;;;18.30;100.00
12666;BME280;58531;59.050;17.416;2023-07-16T08:46:06;100021.47;;;18.30;100.00
12666;BME280;58531;59.050;17.416;2023-07-16T08:48:33;100023.84;;;18.39;100.00
12666;BME280;58531;59.050;17.416;2023-07-16T08:51:02;100053.34;;;18.37;100.00
12666;BME280;58531;59.050;17.416;2023-07-16T08:53:29;99977.47;;;18.30;100.00
12666;BME280;58531;59.050;17.416;2023-07-16T08:55:58;100028.63;;;18.17;100.00
12666;BME280;58531;59.050;17.416;2023-07-16T08:58:25;100054.56;;;17.90;100.00
12666;BME280;58531;59.050;17.416;2023-07-16T09:00:52;100006.00;;;17.74;100.00
12666;BME280;58531;59.050;17.416;2023-07-16T09:03:19;99961.38;;;17.62;100.00
12666;BME280;58531;59.050;17.416;2023-07-16T09:05:46;99984.19;;;17.61;100.00
12666;BME280;58531;59.050;17.416;2023-07-16T09:08:13;100009.03;;;17.60;100.00
12666;BME280;58531;59.050;17.416;2023-07-16T09:10:40;100024.94;;;17.63;100.00
12666;BME280;58531;59.050;17.416;2023-07-16T09:13:09;100041.91;;;17.64;100.00
12666;BME280;58531;59.050;17.416;2023-07-16T09:15:36;100058.81;;;17.64;100.00
12666;BME280;58531;59.050;17.416;2023-07-16T09:18:03;100055.16;;;17.62;100.00
12666;BME280;58531;59.050;17.416;2023-07-16T09:20:30;100041.88;;;17.69;100.00
12666;BME280;58531;59.050;17.416;2023-07-16T09:22:57;100030.59;;;17.71;100.00
12666;BME280;58531;59.050;17.416;2023-07-16T09:25:27;100066.44;;;17.60;100.00
12666;BME280;58531;59.050;17.416;2023-07-16T09:27:55;100115.59;;;17.53;100.00
12666;BME280;58531;59.050;17.416;2023-07-16T09:30:23;100113.63;;;17.43;100.00
12666;BME280;58531;59.050;17.416;2023-07-16T09:32:50;100104.56;;;17.40;100.00
12666;BME280;58531;59.050;17.416;2023-07-16T09:35:17;100089.59;;;17.39;100.00
12666;BME280;58531;59.050;17.416;2023-07-16T09:37:44;100076.56;;;17.43;100.00
12666;BME280;58531;59.050;17.416;2023-07-16T09:40:11;100074.84;;;17.40;100.00
12666;BME280;58531;59.050;17.416;2023-07-16T09:42:39;100089.56;;;17.45;100.00
12666;BME280;58531;59.050;17.416;2023-07-16T09:45:08;100106.50;;;17.45;100.00
12666;BME280;58531;59.050;17.416;2023-07-16T09:47:37;100106.75;;;17.42;100.00
12666;BME280;58531;59.050;17.416;2023-07-16T09:50:04;100098.88;;;17.44;100.00
12666;BME280;58531;59.050;17.416;2023-07-16T09:52:31;100103.56;;;17.54;100.00
12666;BME280;58531;59.050;17.416;2023-07-16T09:55:02;100091.25;;;17.59;100.00
12666;BME280;58531;59.050;17.416;2023-07-16T09:57:34;100060.56;;;17.62;100.00
12666;BME280;58531;59.050;17.416;2023-07-16T10:00:07;100046.78;;;17.65;100.00
12666;BME280;58531;59.050;17.416;2023-07-16T10:02:38;100048.78;;;17.65;100.00
12666;BME280;58531;59.050;17.416;2023-07-16T10:05:12;100031.31;;;17.71;100.00
12666;BME280;58531;59.050;17.416;2023-07-16T10:07:40;100035.25;;;17.70;100.00
12666;BME280;58531;59.050;17.416;2023-07-16T10:10:08;100060.31;;;17.65;100.00
12666;BME280;58531;59.050;17.416;2023-07-16T10:12:38;100072.13;;;17.51;100.00
12666;BME280;58531;59.050;17.416;2023-07-16T10:15:07;100065.28;;;17.34;100.00
12666;BME280;58531;59.050;17.416;2023-07-16T10:17:34;100059.38;;;17.24;100.00
12666;BME280;58531;59.050;17.416;2023-07-16T10:20:07;100048.09;;;17.20;100.00
12666;BME280;58531;59.050;17.416;2023-07-16T10:22:37;100035.59;;;17.17;100.00
12666;BME280;58531;59.050;17.416;2023-07-16T10:25:08;100024.09;;;17.06;100.00
12666;BME280;58531;59.050;17.416;2023-07-16T10:27:36;100029.72;;;17.08;100.00
12666;BME280;58531;59.050;17.416;2023-07-16T10:30:04;100035.84;;;17.08;100.00
12666;BME280;58531;59.050;17.416;2023-07-16T10:32:32;100038.56;;;17.14;100.00
12666;BME280;58531;59.050;17.416;2023-07-16T10:35:00;100049.09;;;17.17;100.00
12666;BME280;58531;59.050;17.416;2023-07-16T10:37:29;100046.88;;;17.16;100.00
12666;BME280;58531;59.050;17.416;2023-07-16T10:39:58;100039.75;;;17.18;100.00
12666;BME280;58531;59.050;17.416;2023-07-16T10:42:26;100058.66;;;17.18;100.00
12666;BME280;58531;59.050;17.416;2023-07-16T10:44:59;100064.03;;;17.18;100.00
12666;BME280;58531;59.050;17.416;2023-07-16T10:47:30;100058.41;;;17.16;100.00
12666;BME280;58531;59.050;17.416;2023-07-16T10:49:58;100047.38;;;17.20;100.00
12666;BME280;58531;59.050;17.416;2023-07-16T10:52:25;100063.06;;;17.38;100.00
12666;BME280;58531;59.050;17.416;2023-07-16T10:54:54;100082.38;;;17.69;100.00
12666;BME280;58531;59.050;17.416;2023-07-16T10:57:23;100094.06;;;18.10;100.00
12666;BME280;58531;59.050;17.416;2023-07-16T10:59:51;100112.41;;;18.33;100.00
12666;BME280;58531;59.050;17.416;2023-07-16T11:02:18;100118.94;;;18.49;100.00
12666;BME280;58531;59.050;17.416;2023-07-16T11:04:47;100099.25;;;18.54;100.00
12666;BME280;58531;59.050;17.416;2023-07-16T11:07:15;100114.97;;;18.61;100.00
12666;BME280;58531;59.050;17.416;2023-07-16T11:09:42;100140.53;;;19.29;100.00
12666;BME280;58531;59.050;17.416;2023-07-16T11:12:12;100144.06;;;19.72;100.00
12666;BME280;58531;59.050;17.416;2023-07-16T11:14:42;100146.56;;;19.94;100.00
12666;BME280;58531;59.050;17.416;2023-07-16T11:17:10;100149.66;;;20.46;100.00
12666;BME280;58531;59.050;17.416;2023-07-16T11:19:37;100145.25;;;20.61;100.00
12666;BME280;58531;59.050;17.416;2023-07-16T11:22:05;100154.63;;;20.79;100.00
12666;BME280;58531;59.050;17.416;2023-07-16T11:24:36;100149.50;;;20.94;100.00
12666;BME280;58531;59.050;17.416;2023-07-16T11:27:05;100155.34;;;21.16;100.00
12666;BME280;58531;59.050;17.416;2023-07-16T11:29:36;100147.88;;;21.48;100.00
12666;BME280;58531;59.050;17.416;2023-07-16T11:32:04;100145.84;;;22.06;100.00
12666;BME280;58531;59.050;17.416;2023-07-16T11:34:31;100153.44;;;22.59;100.00
12666;BME280;58531;59.050;17.416;2023-07-16T11:37:07;100153.34;;;22.85;97.01
12666;BME280;58531;59.050;17.416;2023-07-16T11:39:35;100158.47;;;22.55;96.80
12666;BME280;58531;59.050;17.416;2023-07-16T11:42:02;100157.97;;;22.18;98.75
12666;BME280;58531;59.050;17.416;2023-07-16T11:44:33;100152.97;;;21.70;97.65
12666;BME280;58531;59.050;17.416;2023-07-16T11:47:03;100152.16;;;21.44;97.23
12666;BME280;58531;59.050;17.416;2023-07-16T11:49:30;100163.06;;;21.56;99.56
12666;BME280;58531;59.050;17.416;2023-07-16T11:51:58;100162.38;;;21.69;97.72
12666;BME280;58531;59.050;17.416;2023-07-16T11:54:25;100170.19;;;21.72;99.96
12666;BME280;58531;59.050;17.416;2023-07-16T11:56:52;100171.06;;;21.80;96.29
12666;BME280;58531;59.050;17.416;2023-07-16T11:59:18;100168.34;;;21.93;100.00
12666;BME280;58531;59.050;17.416;2023-07-16T12:01:47;100163.63;;;21.94;98.58
12666;BME280;58531;59.050;17.416;2023-07-16T12:04:16;100175.09;;;22.52;96.14
12666;BME280;58531;59.050;17.416;2023-07-16T12:06:43;100168.38;;;22.66;94.58
12666;BME280;58531;59.050;17.416;2023-07-16T12:09:10;100184.47;;;22.76;95.92
12666;BME280;58531;59.050;17.416;2023-07-16T12:11:37;100178.28;;;22.76;94.69
12666;BME280;58531;59.050;17.416;2023-07-16T12:14:05;100176.22;;;22.69;89.58
12666;BME280;58531;59.050;17.416;2023-07-16T12:16:32;100172.09;;;22.42;94.56
12666;BME280;58531;59.050;17.416;2023-07-16T12:19:00;100175.16;;;22.39;91.91
12666;BME280;58531;59.050;17.416;2023-07-16T12:21:28;100175.84;;;22.26;97.16
12666;BME280;58531;59.050;17.416;2023-07-16T12:23:55;100177.94;;;22.20;91.83
12666;BME280;58531;59.050;17.416;2023-07-16T12:26:21;100177.66;;;22.24;91.06
12666;BME280;58531;59.050;17.416;2023-07-16T12:28:48;100182.97;;;21.90;90.97
12666;BME280;58531;59.050;17.416;2023-07-16T12:31:15;100160.78;;;21.73;92.79
12666;BME280;58531;59.050;17.416;2023-07-16T12:33:43;100155.88;;;22.11;94.26
12666;BME280;58531;59.050;17.416;2023-07-16T12:36:10;100173.91;;;22.73;94.08
12666;BME280;58531;59.050;17.416;2023-07-16T12:38:38;100168.63;;;22.88;90.18
12666;BME280;58531;59.050;17.416;2023-07-16T12:41:06;100167.25;;;22.94;91.74